Terminal Aerodrome Forecast
Issued by NWS Caribou, ME

Home | Current Version | Previous Version | Text Only | Print | Product List | Glossary On
Versions: 1 2 3 4 5 6 7 8 9 10 11 12
000
FTUS41 KCAR 231739 AAB
TAFCAR
TAF AMD
KCAR 231739Z 2318/2418 30007KT P6SM BKN050
     FM240000 00000KT P6SM FEW050 SCT120 BKN200
     FM240600 00000KT P6SM BKN035
     FM241330 22006KT P6SM BKN045=

USA.gov is the U.S. government's official web portal to all federal, state and local government web resources and services.